Time;durP1;ratioP1;P1;durP2;ratioP2;P2;SDS_P1;SDS_P2;PMS_P1;PMS_P2;Temp;Humidity;BMP_temperature;BMP_pressure;BME280_temperature;BME280_humidity;BME280_pressure;Samples;Min_cycle;Max_cycle;Signal;HPM_P1;HPM_P2
2023/04/03 00:00:56;;;;;;;11.87;8.07;;;2.10;99.90;;;;;;4922029;29;20133;-89
2023/04/03 00:03:22;;;;;;;9.67;7.40;;;2.10;99.90;;;;;;4923521;29;20479;-89
2023/04/03 00:05:48;;;;;;;11.97;7.67;;;2.10;99.90;;;;;;4924259;29;20043;-89
2023/04/03 00:08:13;;;;;;;11.27;7.90;;;2.10;99.90;;;;;;4940034;28;20058;-89
2023/04/03 00:10:39;;;;;;;9.33;7.17;;;2.10;99.90;;;;;;4940293;29;20085;-91
2023/04/03 00:13:06;;;;;;;9.43;7.00;;;2.00;99.90;;;;;;4940216;29;20032;-89
2023/04/03 00:15:33;;;;;;;11.43;7.40;;;2.00;99.90;;;;;;4939615;29;20046;-89
2023/04/03 00:17:59;;;;;;;11.47;6.83;;;2.10;99.90;;;;;;4939006;29;20034;-88
2023/04/03 00:20:27;;;;;;;11.07;7.30;;;2.10;99.90;;;;;;4939282;29;20043;-89
2023/04/03 00:22:55;;;;;;;10.97;7.40;;;2.10;99.90;;;;;;4937389;29;20610;-87
2023/04/03 00:25:21;;;;;;;10.60;8.13;;;2.00;99.90;;;;;;4938975;29;20054;-90
2023/04/03 00:27:46;;;;;;;11.73;6.77;;;2.00;99.90;;;;;;4922768;29;20035;-91
2023/04/03 00:30:15;;;;;;;11.87;7.90;;;2.00;99.90;;;;;;4938565;29;20046;-87
2023/04/03 00:32:41;;;;;;;11.83;7.90;;;2.00;99.90;;;;;;4938437;29;20110;-87
2023/04/03 00:35:07;;;;;;;12.43;7.10;;;1.90;99.90;;;;;;4937618;29;20035;-88
2023/04/03 00:37:33;;;;;;;10.77;7.23;;;2.00;99.90;;;;;;4937701;29;20049;-88
2023/04/03 00:39:59;;;;;;;10.03;7.17;;;1.90;99.90;;;;;;4937545;28;20016;-89
2023/04/03 00:42:25;;;;;;;11.13;7.03;;;1.90;99.90;;;;;;4937067;29;20051;-90
2023/04/03 00:44:56;;;;;;;12.23;7.57;;;2.00;99.90;;;;;;4936966;28;20031;-90
2023/04/03 00:47:22;;;;;;;8.33;6.63;;;1.90;99.90;;;;;;4937467;29;21411;-89
2023/04/03 00:49:49;;;;;;;11.33;7.50;;;1.90;99.90;;;;;;4937742;29;20027;-89
2023/04/03 00:52:18;;;;;;;9.37;6.77;;;2.00;99.90;;;;;;4937205;29;20101;-89
2023/04/03 00:54:47;;;;;;;12.60;7.40;;;1.90;99.90;;;;;;4937384;29;20031;-89
2023/04/03 00:57:13;;;;;;;9.17;7.10;;;1.90;99.90;;;;;;4921430;29;20023;-89
2023/04/03 00:59:50;;;;;;;11.93;6.47;;;1.90;99.90;;;;;;4937306;29;20038;-89
2023/04/03 01:02:16;;;;;;;9.20;7.20;;;2.00;99.90;;;;;;4937135;29;20035;-89
2023/04/03 01:04:43;;;;;;;10.73;6.60;;;1.90;99.90;;;;;;4936916;29;20731;-89
2023/04/03 01:07:16;;;;;;;12.70;7.30;;;1.90;99.90;;;;;;4936559;29;20095;-89
2023/04/03 01:09:43;;;;;;;9.30;6.37;;;1.90;99.90;;;;;;4936980;29;20042;-90
2023/04/03 01:12:16;;;;;;;10.67;7.47;;;1.90;99.90;;;;;;4937232;29;20042;-89
2023/04/03 01:14:43;;;;;;;9.83;6.40;;;1.80;99.90;;;;;;4937149;29;20039;-89
2023/04/03 01:17:32;;;;;;;11.53;6.70;;;1.80;99.90;;;;;;4936757;28;20046;-89
2023/04/03 01:20:36;;;;;;;9.77;6.73;;;1.80;99.90;;;;;;4937082;29;20123;-90
2023/04/03 01:23:32;;;;;;;8.90;6.37;;;1.80;99.90;;;;;;4936202;29;20450;-90
2023/04/03 01:25:58;;;;;;;9.63;5.55;;;1.80;99.90;;;;;;4936749;29;20042;-90
2023/04/03 01:28:26;;;;;;;7.23;5.33;;;1.80;99.90;;;;;;4935886;29;20390;-90
2023/04/03 01:31:08;;;;;;;9.73;5.70;;;1.80;99.90;;;;;;4936424;29;20085;-87
2023/04/03 01:33:35;;;;;;;8.57;6.07;;;1.80;99.90;;;;;;4935622;28;20066;-89
2023/04/03 01:36:01;;;;;;;6.70;5.20;;;1.80;99.90;;;;;;4936105;28;20034;-89
2023/04/03 01:38:26;;;;;;;9.17;6.10;;;1.80;99.90;;;;;;4935580;29;20038;-88
2023/04/03 01:40:52;;;;;;;7.50;5.00;;;1.80;99.90;;;;;;4936120;29;20024;-88
2023/04/03 01:43:18;;;;;;;8.30;6.03;;;1.80;99.90;;;;;;4935217;28;20055;-88
2023/04/03 01:45:43;;;;;;;8.03;6.07;;;1.80;99.90;;;;;;4936151;29;20495;-89
2023/04/03 01:48:09;;;;;;;6.93;5.27;;;1.80;99.90;;;;;;4935055;28;20117;-89
2023/04/03 01:50:35;;;;;;;7.67;5.40;;;1.80;99.90;;;;;;4935877;29;20039;-88
2023/04/03 01:53:00;;;;;;;8.60;5.77;;;1.80;99.90;;;;;;4935092;29;20063;-88
2023/04/03 01:55:28;;;;;;;6.77;4.90;;;1.80;99.90;;;;;;4935879;29;20122;-89
2023/04/03 01:57:54;;;;;;;8.00;5.10;;;1.80;99.90;;;;;;4918217;29;21444;-88
2023/04/03 02:00:19;;;;;;;7.23;5.27;;;1.80;99.90;;;;;;4919552;29;20135;-88
2023/04/03 02:02:45;;;;;;;7.17;5.10;;;1.80;99.90;;;;;;4935053;28;20526;-88
2023/04/03 02:05:10;;;;;;;7.17;4.80;;;1.80;99.90;;;;;;4935536;28;20143;-88
2023/04/03 02:07:36;;;;;;;7.30;4.90;;;1.80;99.90;;;;;;4935440;29;20031;-88
2023/04/03 02:10:02;;;;;;;9.50;5.33;;;1.80;99.90;;;;;;4918692;29;20111;-88
2023/04/03 02:12:28;;;;;;;7.40;5.10;;;1.80;99.90;;;;;;4933481;29;20031;-88
2023/04/03 02:14:53;;;;;;;7.80;4.80;;;1.80;99.90;;;;;;4934168;29;20043;-88
2023/04/03 02:17:19;;;;;;;6.93;4.80;;;1.80;99.90;;;;;;4933721;29;20692;-89
2023/04/03 02:19:44;;;;;;;7.63;4.80;;;1.80;99.90;;;;;;4934494;29;20587;-89
2023/04/03 02:22:10;;;;;;;6.80;4.77;;;1.80;99.90;;;;;;4934968;29;20050;-90
2023/04/03 02:24:35;;;;;;;5.73;4.23;;;1.90;99.90;;;;;;4934934;29;20032;-89
2023/04/03 02:27:01;;;;;;;8.20;5.23;;;1.90;99.90;;;;;;4934958;29;20039;-89
2023/04/03 02:29:27;;;;;;;5.13;4.27;;;1.90;99.90;;;;;;4934701;29;20031;-90
2023/04/03 02:31:52;;;;;;;6.30;4.23;;;1.80;99.90;;;;;;4935889;29;20038;-89
2023/04/03 02:34:21;;;;;;;6.60;4.27;;;1.90;99.90;;;;;;4934495;29;20038;-89
2023/04/03 02:36:46;;;;;;;6.37;4.43;;;1.90;99.90;;;;;;4935494;29;20032;-89
2023/04/03 02:39:12;;;;;;;8.43;4.90;;;1.90;99.90;;;;;;4935968;28;20051;-89
2023/04/03 02:41:37;;;;;;;5.43;3.97;;;1.90;99.90;;;;;;4933955;28;20167;-89
2023/04/03 02:44:05;;;;;;;6.77;4.50;;;1.90;99.90;;;;;;4933325;29;20058;-89
2023/04/03 02:46:32;;;;;;;6.60;5.00;;;1.90;99.90;;;;;;4933652;29;20142;-89
2023/04/03 02:48:58;;;;;;;5.90;4.33;;;1.90;99.90;;;;;;4934773;29;20517;-89
2023/04/03 02:51:24;;;;;;;5.90;4.40;;;2.00;99.90;;;;;;4935357;29;20078;-90
2023/04/03 02:53:50;;;;;;;5.73;4.23;;;1.90;99.90;;;;;;4934852;29;20107;-90
2023/04/03 02:56:19;;;;;;;7.30;4.50;;;1.90;99.90;;;;;;4935223;29;20056;-90
2023/04/03 02:58:44;;;;;;;5.77;4.40;;;2.00;99.90;;;;;;4935393;29;20125;-90
2023/04/03 03:01:10;;;;;;;7.00;4.53;;;2.00;99.90;;;;;;4935505;29;20035;-89
2023/04/03 03:03:36;;;;;;;6.10;4.10;;;2.00;99.90;;;;;;4934552;29;20051;-89
2023/04/03 03:06:05;;;;;;;5.90;4.20;;;2.00;99.90;;;;;;4934849;29;20035;-89
2023/04/03 03:08:32;;;;;;;6.23;3.77;;;2.00;99.90;;;;;;4934723;28;20063;-89
2023/04/03 03:10:57;;;;;;;5.00;3.40;;;2.00;99.90;;;;;;4934910;29;20586;-90
2023/04/03 03:13:23;;;;;;;5.60;3.80;;;2.00;99.90;;;;;;4934748;29;20035;-89
2023/04/03 03:15:49;;;;;;;4.97;3.33;;;2.00;99.90;;;;;;4935466;29;20039;-90
2023/04/03 03:18:17;;;;;;;6.13;3.93;;;2.00;99.90;;;;;;4934507;29;20090;-90
2023/04/03 03:20:42;;;;;;;6.77;3.80;;;2.00;99.90;;;;;;4918795;29;20071;-90
2023/04/03 03:23:10;;;;;;;5.17;3.57;;;2.00;99.90;;;;;;4935063;29;20044;-90
2023/04/03 03:25:40;;;;;;;4.87;3.50;;;2.10;99.90;;;;;;4935090;29;20032;-90
2023/04/03 03:28:08;;;;;;;6.27;4.13;;;2.10;99.90;;;;;;4934099;29;20035;-90
2023/04/03 03:30:35;;;;;;;7.90;4.10;;;2.10;99.90;;;;;;4935183;29;20060;-87
2023/04/03 03:33:01;;;;;;;5.73;3.87;;;2.10;99.90;;;;;;4934011;29;20042;-90
2023/04/03 03:35:28;;;;;;;7.07;3.77;;;2.10;99.90;;;;;;4934452;29;20392;-88
2023/04/03 03:37:53;;;;;;;4.40;3.57;;;2.10;99.90;;;;;;4917760;29;20414;-88
2023/04/03 03:40:19;;;;;;;4.33;3.33;;;2.10;99.90;;;;;;4933955;29;20024;-88
2023/04/03 03:42:44;;;;;;;4.77;3.43;;;2.10;99.90;;;;;;4933310;28;20051;-88
2023/04/03 03:45:10;;;;;;;5.67;3.77;;;2.10;99.90;;;;;;4934117;29;20035;-88
2023/04/03 03:47:36;;;;;;;6.07;4.07;;;2.10;99.90;;;;;;4934165;29;20066;-88
2023/04/03 03:50:02;;;;;;;8.43;4.77;;;2.10;99.90;;;;;;4934341;29;20398;-87
2023/04/03 03:52:28;;;;;;;7.00;4.67;;;2.10;99.90;;;;;;4933658;29;20036;-88
2023/04/03 03:54:53;;;;;;;6.53;3.80;;;2.10;99.90;;;;;;4917649;29;20035;-88
2023/04/03 03:57:19;;;;;;;6.40;3.80;;;2.10;99.90;;;;;;4933805;29;20941;-88
2023/04/03 03:59:44;;;;;;;6.07;3.77;;;2.10;99.90;;;;;;4933633;29;20399;-89
2023/04/03 04:02:11;;;;;;;6.50;3.80;;;2.10;99.90;;;;;;4933727;28;20078;-88
2023/04/03 04:04:37;;;;;;;6.60;3.77;;;2.10;99.90;;;;;;4934076;29;20055;-88
2023/04/03 04:07:03;;;;;;;8.33;4.70;;;2.20;99.90;;;;;;4933923;29;20149;-87
2023/04/03 04:09:28;;;;;;;8.10;4.03;;;2.20;99.90;;;;;;4933509;29;20024;-88
2023/04/03 04:11:54;;;;;;;8.07;4.23;;;2.20;99.90;;;;;;4933925;29;20455;-88
2023/04/03 04:14:22;;;;;;;5.43;3.83;;;2.20;99.90;;;;;;4933260;29;20031;-87
2023/04/03 04:16:48;;;;;;;6.53;4.77;;;2.20;99.90;;;;;;4934026;28;20016;-87
2023/04/03 04:19:14;;;;;;;10.23;6.53;;;2.20;99.90;;;;;;4933640;28;20038;-87
2023/04/03 04:21:41;;;;;;;32.33;18.43;;;2.10;99.90;;;;;;4936767;28;20030;-87
2023/04/03 04:24:07;;;;;;;22.33;11.60;;;2.10;99.90;;;;;;4937410;29;20109;-87
2023/04/03 04:26:33;;;;;;;11.60;8.07;;;2.10;99.90;;;;;;4921234;28;21366;-87
2023/04/03 04:28:58;;;;;;;22.63;11.83;;;2.10;99.90;;;;;;4937425;29;20027;-80
2023/04/03 04:31:24;;;;;;;10.60;7.40;;;2.10;99.90;;;;;;4936226;29;20027;-81
2023/04/03 04:33:49;;;;;;;6.63;4.60;;;2.10;99.90;;;;;;4936648;28;20034;-81
2023/04/03 04:36:15;;;;;;;7.30;4.90;;;2.10;99.90;;;;;;4936867;29;20031;-81
2023/04/03 04:38:41;;;;;;;7.63;4.30;;;2.10;99.90;;;;;;4919886;29;20379;-82
2023/04/03 04:41:12;;;;;;;6.53;4.37;;;2.20;99.90;;;;;;4936847;29;20066;-82
2023/04/03 04:43:38;;;;;;;7.50;4.10;;;2.20;99.90;;;;;;4935719;28;20139;-82
2023/04/03 04:46:06;;;;;;;8.20;4.50;;;2.20;99.90;;;;;;4936339;29;20050;-79
2023/04/03 04:48:33;;;;;;;14.03;7.53;;;2.20;99.90;;;;;;4936288;29;20035;-83
2023/04/03 04:50:58;;;;;;;8.47;6.17;;;2.20;99.90;;;;;;4920101;29;20392;-82
2023/04/03 04:53:24;;;;;;;8.10;5.50;;;2.20;99.90;;;;;;4934062;29;20035;-80
2023/04/03 04:55:51;;;;;;;8.40;4.20;;;2.20;99.90;;;;;;4931559;28;20047;-80
2023/04/03 04:58:17;;;;;;;8.80;5.40;;;2.20;99.90;;;;;;4933715;29;20046;-80
2023/04/03 05:00:42;;;;;;;8.70;5.63;;;2.20;99.90;;;;;;4934666;29;20032;-80
2023/04/03 05:03:08;;;;;;;8.13;5.47;;;2.20;99.90;;;;;;4935036;29;20054;-80
2023/04/03 05:05:36;;;;;;;9.83;6.50;;;2.10;99.90;;;;;;4933620;29;20046;-80
2023/04/03 05:08:08;;;;;;;6.63;4.27;;;2.20;99.90;;;;;;4917781;29;20035;-80
2023/04/03 05:10:34;;;;;;;8.47;4.60;;;2.10;99.90;;;;;;4919671;29;20522;-80
2023/04/03 05:12:59;;;;;;;7.13;4.70;;;2.10;99.90;;;;;;4935169;29;20035;-80
2023/04/03 05:15:25;;;;;;;8.27;5.23;;;2.10;99.90;;;;;;4935973;29;20456;-80
2023/04/03 05:17:50;;;;;;;7.87;5.00;;;2.10;99.90;;;;;;4934620;29;20774;-80
2023/04/03 05:20:16;;;;;;;6.70;4.40;;;2.20;99.90;;;;;;4933742;29;20526;-81
2023/04/03 05:22:42;;;;;;;10.87;6.33;;;2.20;99.90;;;;;;4934738;29;20047;-80
2023/04/03 05:25:08;;;;;;;9.27;5.67;;;2.20;99.90;;;;;;4936140;29;20039;-80
2023/04/03 05:27:33;;;;;;;6.90;5.23;;;2.20;99.90;;;;;;4918545;29;20034;-80
2023/04/03 05:29:59;;;;;;;9.67;7.33;;;2.20;99.90;;;;;;4935461;29;20035;-80
2023/04/03 05:32:27;;;;;;;8.57;4.90;;;2.20;99.90;;;;;;4934815;28;20082;-83
2023/04/03 05:34:53;;;;;;;7.53;5.00;;;2.20;99.90;;;;;;4934763;29;20043;-84
2023/04/03 05:37:19;;;;;;;8.33;4.70;;;2.20;99.90;;;;;;4931891;29;20051;-83
2023/04/03 05:39:45;;;;;;;7.10;4.30;;;2.20;99.90;;;;;;4935706;29;20063;-83
2023/04/03 05:42:11;;;;;;;10.87;5.27;;;2.20;99.90;;;;;;4932665;29;20146;-83
2023/04/03 05:44:37;;;;;;;7.50;4.63;;;2.20;99.90;;;;;;4934819;28;20063;-83
2023/04/03 05:47:06;;;;;;;8.50;5.53;;;2.20;99.90;;;;;;4934307;28;20195;-83
2023/04/03 05:49:32;;;;;;;7.80;5.13;;;2.20;99.90;;;;;;4935015;29;20661;-83
2023/04/03 05:51:58;;;;;;;6.47;4.87;;;2.20;99.90;;;;;;4935082;28;20048;-83
2023/04/03 05:54:26;;;;;;;5.60;4.43;;;2.20;99.90;;;;;;4933949;29;20171;-83
2023/04/03 05:56:52;;;;;;;8.47;5.37;;;2.30;99.90;;;;;;4932705;29;20042;-84
2023/04/03 05:59:19;;;;;;;8.53;5.20;;;2.30;99.90;;;;;;4933852;29;20639;-83
2023/04/03 06:01:48;;;;;;;7.57;4.87;;;2.30;99.90;;;;;;4933358;29;20600;-83
2023/04/03 06:04:16;;;;;;;6.77;5.20;;;2.30;99.90;;;;;;4924111;28;20114;-83
2023/04/03 06:06:58;;;;;;;6.03;5.03;;;2.30;99.90;;;;;;4930513;28;20035;-82
2023/04/03 06:09:28;;;;;;;9.33;4.93;;;2.40;99.90;;;;;;4930581;28;20031;-82
2023/04/03 06:12:00;;;;;;;9.63;5.47;;;2.30;99.90;;;;;;4931144;29;20086;-83
2023/04/03 06:14:28;;;;;;;7.77;5.00;;;2.40;99.90;;;;;;4930692;29;20028;-82
2023/04/03 06:17:01;;;;;;;7.57;5.97;;;2.40;99.90;;;;;;4932397;29;21502;-84
2023/04/03 06:19:30;;;;;;;7.33;4.83;;;2.40;99.90;;;;;;4933191;28;20162;-84
2023/04/03 06:21:56;;;;;;;7.50;4.80;;;2.40;99.90;;;;;;4931904;29;20166;-83
2023/04/03 06:24:23;;;;;;;7.87;5.13;;;2.50;99.90;;;;;;4931346;29;20031;-83
2023/04/03 06:26:51;;;;;;;10.47;5.97;;;2.50;99.90;;;;;;4931207;29;20039;-83
2023/04/03 06:29:17;;;;;;;10.87;6.87;;;2.50;99.90;;;;;;4931024;29;20660;-83
2023/04/03 06:31:42;;;;;;;7.00;5.10;;;2.50;99.90;;;;;;4932039;29;20743;-83
2023/04/03 06:34:08;;;;;;;6.57;5.10;;;2.60;99.90;;;;;;4931626;28;20035;-83
2023/04/03 06:36:34;;;;;;;7.50;5.20;;;2.70;99.90;;;;;;4925859;29;20023;-83
2023/04/03 06:39:01;;;;;;;7.27;5.03;;;2.70;99.90;;;;;;4909380;29;20042;-83
2023/04/03 06:41:30;;;;;;;8.27;5.43;;;2.80;99.90;;;;;;4928069;28;20856;-83
2023/04/03 06:43:58;;;;;;;7.43;4.50;;;2.80;99.90;;;;;;4930891;28;20071;-83
2023/04/03 06:46:25;;;;;;;6.67;5.23;;;2.80;99.90;;;;;;4931892;29;20070;-83
2023/04/03 06:48:51;;;;;;;9.27;5.50;;;2.90;99.90;;;;;;4928343;29;20042;-83
2023/04/03 06:51:21;;;;;;;7.63;4.93;;;2.90;99.90;;;;;;4930379;28;21232;-83
2023/04/03 06:53:52;;;;;;;11.57;5.30;;;3.00;99.90;;;;;;4931302;29;20793;-83
2023/04/03 06:56:19;;;;;;;7.53;5.20;;;3.00;99.90;;;;;;4932167;28;20483;-83
2023/04/03 06:58:46;;;;;;;8.23;5.37;;;3.00;99.90;;;;;;4930422;29;20030;-84
2023/04/03 07:01:14;;;;;;;9.23;5.30;;;3.00;99.90;;;;;;4930082;29;20042;-84
2023/04/03 07:03:40;;;;;;;8.13;5.13;;;3.00;99.90;;;;;;4929346;29;20050;-84
2023/04/03 07:06:09;;;;;;;8.27;4.97;;;3.10;99.90;;;;;;4930658;29;20083;-83
2023/04/03 07:08:34;;;;;;;9.90;5.83;;;3.10;99.90;;;;;;4932201;29;20023;-84
2023/04/03 07:11:00;;;;;;;8.67;5.23;;;3.10;99.90;;;;;;4930673;29;21454;-84
2023/04/03 07:13:26;;;;;;;7.10;4.63;;;3.20;99.90;;;;;;4914866;29;20078;-83
2023/04/03 07:15:52;;;;;;;9.10;5.57;;;3.30;99.90;;;;;;4930013;29;20059;-83
2023/04/03 07:18:18;;;;;;;8.10;5.00;;;3.30;99.90;;;;;;4932438;29;20035;-83
2023/04/03 07:20:43;;;;;;;6.63;5.33;;;3.30;99.90;;;;;;4930660;29;20526;-83
2023/04/03 07:23:10;;;;;;;8.50;5.00;;;3.30;99.90;;;;;;4932531;28;21470;-83
2023/04/03 07:25:36;;;;;;;7.37;5.17;;;3.40;99.90;;;;;;4933149;28;20490;-84
2023/04/03 07:28:02;;;;;;;7.77;5.10;;;3.50;99.90;;;;;;4914908;29;20031;-83
2023/04/03 07:30:27;;;;;;;7.60;5.17;;;3.50;99.90;;;;;;4929798;28;20054;-82
2023/04/03 07:32:53;;;;;;;26.60;16.50;;;3.60;99.90;;;;;;4931141;29;20039;-83
2023/04/03 07:35:19;;;;;;;19.90;11.43;;;3.70;99.90;;;;;;4932445;28;20503;-83
2023/04/03 07:37:44;;;;;;;19.13;10.10;;;3.70;99.90;;;;;;4929447;29;20070;-88
2023/04/03 07:40:10;;;;;;;11.97;6.80;;;3.70;99.90;;;;;;4910841;29;21541;-86
2023/04/03 07:42:36;;;;;;;8.20;5.10;;;3.80;99.90;;;;;;4929902;29;20086;-87
2023/04/03 07:45:03;;;;;;;13.87;10.63;;;3.80;99.90;;;;;;4932436;29;20027;-87
2023/04/03 07:47:28;;;;;;;11.37;8.13;;;3.80;99.90;;;;;;4933521;28;20050;-86
2023/04/03 07:49:54;;;;;;;17.87;11.67;;;3.80;99.90;;;;;;4930175;29;20038;-87
2023/04/03 07:52:19;;;;;;;21.00;12.57;;;3.80;99.90;;;;;;4930494;29;20074;-87
2023/04/03 07:54:45;;;;;;;15.30;9.13;;;3.90;99.90;;;;;;4932400;28;20024;-87
2023/04/03 07:57:11;;;;;;;16.70;9.13;;;3.90;99.90;;;;;;4936393;29;20058;-87
2023/04/03 07:59:39;;;;;;;22.90;14.17;;;4.00;99.90;;;;;;4933214;29;20098;-87
2023/04/03 08:02:05;;;;;;;21.80;12.50;;;4.10;99.90;;;;;;4936180;28;20065;-87
2023/04/03 08:04:30;;;;;;;8.93;7.07;;;4.10;99.90;;;;;;4917058;29;20472;-87
2023/04/03 08:06:56;;;;;;;8.63;5.00;;;4.00;99.90;;;;;;4935639;29;20035;-87
2023/04/03 08:09:22;;;;;;;9.33;5.50;;;4.10;99.90;;;;;;4932926;28;20039;-87
2023/04/03 08:11:47;;;;;;;11.23;7.10;;;4.10;99.90;;;;;;4936255;28;20527;-87
2023/04/03 08:14:18;;;;;;;9.67;5.70;;;4.10;99.90;;;;;;4934681;28;20039;-87
2023/04/03 08:16:46;;;;;;;8.50;5.50;;;4.10;99.90;;;;;;4934588;29;20540;-87
2023/04/03 08:19:13;;;;;;;9.07;5.20;;;4.20;99.90;;;;;;4932284;29;21497;-87
2023/04/03 08:21:41;;;;;;;8.30;5.50;;;4.20;99.90;;;;;;4934650;29;20035;-87
2023/04/03 08:24:07;;;;;;;9.57;6.07;;;4.20;99.90;;;;;;4935472;28;20043;-87
2023/04/03 08:26:32;;;;;;;7.13;5.20;;;4.10;99.90;;;;;;4935528;28;20123;-87
2023/04/03 08:28:58;;;;;;;8.17;4.80;;;4.10;99.90;;;;;;4932424;29;20867;-87
2023/04/03 08:31:24;;;;;;;10.23;6.07;;;4.20;99.90;;;;;;4933650;28;20035;-87
2023/04/03 08:33:50;;;;;;;8.10;6.20;;;4.20;99.90;;;;;;4935138;29;20103;-87
2023/04/03 08:36:27;;;;;;;11.37;7.70;;;4.20;99.90;;;;;;4936499;28;20033;-87
2023/04/03 08:38:54;;;;;;;10.87;6.90;;;4.20;99.90;;;;;;4938796;29;20065;-86
2023/04/03 08:41:35;;;;;;;7.97;5.40;;;4.10;99.90;;;;;;4937596;28;20035;-85
2023/04/03 08:44:32;;;;;;;27.37;14.30;;;4.30;99.90;;;;;;4936434;29;20058;-86
2023/04/03 08:47:03;;;;;;;20.40;11.33;;;4.20;99.90;;;;;;4936155;29;20647;-86
2023/04/03 08:49:33;;;;;;;19.40;12.93;;;4.30;99.90;;;;;;4935582;29;20091;-86
2023/04/03 08:52:03;;;;;;;8.37;5.57;;;4.40;99.90;;;;;;4935919;29;20043;-86
2023/04/03 08:55:00;;;;;;;14.73;8.60;;;4.40;99.90;;;;;;4935787;29;20468;-86
2023/04/03 08:57:34;;;;;;;6.23;4.30;;;4.50;99.90;;;;;;4935679;28;20099;-85
2023/04/03 09:00:07;;;;;;;9.23;6.00;;;4.50;99.90;;;;;;4936021;29;20118;-86
2023/04/03 09:02:41;;;;;;;13.53;5.93;;;4.50;99.90;;;;;;4935711;29;20039;-86
2023/04/03 09:05:14;;;;;;;7.27;4.93;;;4.50;99.90;;;;;;4936611;29;20098;-86
2023/04/03 09:08:10;;;;;;;9.83;5.20;;;4.50;99.90;;;;;;4934291;29;20493;-86
2023/04/03 09:10:39;;;;;;;25.23;8.40;;;4.50;99.90;;;;;;4931606;29;20036;-86
2023/04/03 09:13:21;;;;;;;30.93;9.30;;;4.60;99.90;;;;;;4935505;29;20420;-86
2023/04/03 09:15:46;;;;;;;20.77;7.40;;;4.60;99.90;;;;;;4934508;29;20398;-87
2023/04/03 09:18:39;;;;;;;12.50;5.13;;;4.70;99.90;;;;;;4934692;28;20116;-86
2023/04/03 09:21:13;;;;;;;16.50;5.90;;;4.70;99.90;;;;;;4935150;29;20027;-87
2023/04/03 09:23:50;;;;;;;12.47;5.80;;;4.60;99.90;;;;;;4935578;29;20039;-87
2023/04/03 09:26:38;;;;;;;9.40;5.57;;;4.60;99.90;;;;;;4935577;29;20763;-87
2023/04/03 09:29:10;;;;;;;12.50;5.77;;;4.70;99.90;;;;;;4918464;29;20028;-87
2023/04/03 09:31:47;;;;;;;14.43;6.33;;;4.70;99.90;;;;;;4936210;28;20089;-84
2023/04/03 09:34:32;;;;;;;10.23;5.20;;;4.80;99.90;;;;;;4917477;29;20069;-86
2023/04/03 09:37:05;;;;;;;11.32;5.65;;;4.80;99.90;;;;;;4933246;29;20035;-85
2023/04/03 09:39:31;;;;;;;12.80;5.50;;;4.90;99.90;;;;;;4933775;29;20035;-85
2023/04/03 09:42:01;;;;;;;8.20;4.70;;;4.80;99.90;;;;;;4934750;28;20059;-85
2023/04/03 09:44:32;;;;;;;11.10;5.00;;;4.90;99.90;;;;;;4932725;29;20027;-86
2023/04/03 09:47:16;;;;;;;7.90;4.50;;;4.80;99.90;;;;;;4934841;29;20531;-86
2023/04/03 09:49:42;;;;;;;5.80;3.93;;;4.80;99.90;;;;;;4935422;29;20036;-85
2023/04/03 09:52:24;;;;;;;7.77;4.70;;;4.70;99.90;;;;;;4935203;29;20039;-86
2023/04/03 09:54:50;;;;;;;5.60;4.20;;;4.60;99.90;;;;;;4934922;29;20031;-86
2023/04/03 09:57:15;;;;;;;8.57;4.53;;;4.50;99.90;;;;;;4932815;28;20095;-85
2023/04/03 09:59:59;;;;;;;8.67;4.60;;;4.50;99.90;;;;;;4918624;29;20509;-86
2023/04/03 10:02:40;;;;;;;9.17;5.60;;;4.50;99.90;;;;;;4934078;28;20131;-85
2023/04/03 10:05:31;;;;;;;6.07;4.60;;;4.50;99.90;;;;;;4935347;28;20031;-86
2023/04/03 10:08:15;;;;;;;5.97;4.30;;;4.60;99.90;;;;;;4933102;29;20039;-84
2023/04/03 10:10:43;;;;;;;7.40;4.63;;;4.60;99.90;;;;;;4933003;29;20087;-85
2023/04/03 10:13:13;;;;;;;7.07;3.97;;;4.70;99.90;;;;;;4933737;29;20032;-84
2023/04/03 10:15:50;;;;;;;7.73;3.87;;;4.70;99.90;;;;;;4935676;28;21367;-85
2023/04/03 10:18:30;;;;;;;7.13;4.07;;;4.70;99.90;;;;;;4934004;28;20118;-85
2023/04/03 10:21:06;;;;;;;7.13;4.30;;;4.60;99.90;;;;;;4933886;29;20597;-85
2023/04/03 10:23:45;;;;;;;5.23;4.20;;;4.60;99.90;;;;;;4934558;29;20044;-85
2023/04/03 10:26:26;;;;;;;6.73;4.60;;;4.60;99.90;;;;;;4932710;29;20036;-84
2023/04/03 10:29:29;;;;;;;7.87;5.07;;;4.70;99.90;;;;;;4934021;29;20561;-84
2023/04/03 10:32:22;;;;;;;6.00;3.90;;;4.70;99.90;;;;;;4934478;29;20024;-84
2023/04/03 10:35:18;;;;;;;5.77;4.00;;;4.50;99.90;;;;;;4934088;29;20118;-85
2023/04/03 10:38:04;;;;;;;5.43;3.90;;;4.40;99.90;;;;;;4915292;29;20514;-84
2023/04/03 10:40:34;;;;;;;6.28;3.88;;;4.20;99.90;;;;;;4928313;29;20486;-83
2023/04/03 10:43:49;;;;;;;9.07;4.23;;;4.10;99.90;;;;;;4931646;29;20059;-85
2023/04/03 10:46:35;;;;;;;7.70;4.07;;;4.00;99.90;;;;;;4887690;28;20063;-84
2023/04/03 10:49:10;;;;;;;5.50;3.37;;;4.00;99.90;;;;;;4933295;29;20035;-84
2023/04/03 10:51:55;;;;;;;6.07;4.00;;;4.00;99.90;;;;;;4933951;29;20024;-85
2023/04/03 10:54:28;;;;;;;8.23;4.47;;;4.00;99.90;;;;;;4931759;29;20082;-85
2023/04/03 10:57:03;;;;;;;5.53;4.00;;;4.00;99.90;;;;;;4916872;29;20027;-85
2023/04/03 10:59:41;;;;;;;6.63;3.20;;;4.20;99.90;;;;;;4915978;29;21402;-85
2023/04/03 11:02:23;;;;;;;13.27;3.40;;;4.30;99.90;;;;;;4933435;29;20125;-85
2023/04/03 11:04:55;;;;;;;5.67;3.50;;;4.40;99.90;;;;;;4933900;29;20090;-85
2023/04/03 11:07:26;;;;;;;6.93;3.90;;;4.50;99.90;;;;;;4932904;29;20036;-85
2023/04/03 11:10:00;;;;;;;6.50;3.10;;;4.70;99.90;;;;;;4933844;29;20027;-85
2023/04/03 11:12:36;;;;;;;5.73;3.30;;;4.80;99.90;;;;;;4932185;29;20039;-85
2023/04/03 11:15:03;;;;;;;4.73;3.20;;;4.90;99.90;;;;;;4933676;28;20082;-85
2023/04/03 11:17:45;;;;;;;8.13;3.47;;;5.00;99.90;;;;;;4932786;28;20450;-86
2023/04/03 11:20:27;;;;;;;45.07;21.53;;;5.10;99.90;;;;;;4932872;29;20027;-86
2023/04/03 11:22:58;;;;;;;11.20;4.80;;;5.20;99.90;;;;;;4932763;29;21483;-86
2023/04/03 11:25:25;;;;;;;10.50;5.50;;;5.20;99.90;;;;;;4933110;29;20027;-86
2023/04/03 11:27:54;;;;;;;15.20;8.30;;;5.20;99.90;;;;;;4932447;29;20117;-86
2023/04/03 11:30:45;;;;;;;19.57;9.63;;;5.30;99.90;;;;;;4933625;28;20080;-85
2023/04/03 11:33:11;;;;;;;11.97;5.93;;;5.30;99.90;;;;;;4932879;29;20035;-85
2023/04/03 11:35:43;;;;;;;33.67;14.37;;;5.30;99.90;;;;;;4933473;29;20087;-85
2023/04/03 11:38:45;;;;;;;66.27;26.03;;;5.20;99.90;;;;;;4932911;29;20031;-85
2023/04/03 11:41:12;;;;;;;57.37;19.87;;;5.30;99.90;;;;;;4920537;29;20088;-86
2023/04/03 11:43:55;;;;;;;18.77;7.47;;;5.20;99.90;;;;;;4932916;29;20039;-85
2023/04/03 11:46:21;;;;;;;23.30;9.70;;;5.10;99.90;;;;;;4933237;29;20487;-85
2023/04/03 11:48:48;;;;;;;72.70;24.87;;;5.10;99.90;;;;;;4933185;29;20038;-85
2023/04/03 11:51:21;;;;;;;23.33;12.43;;;5.10;99.90;;;;;;4917299;29;20122;-85
2023/04/03 11:53:47;;;;;;;5.90;3.50;;;5.10;99.90;;;;;;4932698;29;20510;-85
2023/04/03 11:56:30;;;;;;;5.97;3.07;;;5.20;99.90;;;;;;4932671;29;20027;-85
2023/04/03 11:59:11;;;;;;;5.87;2.80;;;5.20;99.90;;;;;;4932834;29;20043;-85
2023/04/03 12:01:49;;;;;;;7.63;3.30;;;5.30;99.90;;;;;;4932944;29;20566;-85
2023/04/03 12:04:20;;;;;;;5.47;2.43;;;5.40;99.90;;;;;;4932754;29;20049;-85
2023/04/03 12:06:51;;;;;;;4.93;2.20;;;5.50;99.90;;;;;;4933580;28;20033;-86
2023/04/03 12:09:30;;;;;;;4.97;2.40;;;5.60;99.90;;;;;;4933494;29;20027;-85
2023/04/03 12:12:01;;;;;;;5.07;2.30;;;5.60;99.90;;;;;;4917088;29;20031;-85
2023/04/03 12:14:31;;;;;;;4.40;2.30;;;5.80;99.90;;;;;;4933383;29;20038;-85
2023/04/03 12:16:57;;;;;;;3.27;1.63;;;6.00;99.90;;;;;;4932570;29;20027;-86
2023/04/03 12:19:31;;;;;;;4.67;2.10;;;6.10;99.90;;;;;;4932929;29;20106;-85
2023/04/03 12:21:58;;;;;;;4.00;2.03;;;6.10;99.90;;;;;;4932744;29;20122;-85
2023/04/03 12:24:31;;;;;;;3.80;2.20;;;6.20;99.90;;;;;;4932686;29;20023;-85
2023/04/03 12:26:57;;;;;;;4.47;2.10;;;6.40;99.90;;;;;;4932303;29;20035;-85
2023/04/03 12:29:32;;;;;;;4.80;2.20;;;6.60;99.90;;;;;;4931991;29;20027;-86
2023/04/03 12:32:37;;;;;;;6.83;2.30;;;6.70;99.90;;;;;;4932979;28;20054;-86
2023/04/03 12:35:14;;;;;;;3.47;2.00;;;6.80;99.90;;;;;;4933596;29;20081;-85
2023/04/03 12:38:03;;;;;;;3.37;2.20;;;6.70;99.90;;;;;;4933144;29;20020;-86
2023/04/03 12:40:41;;;;;;;6.10;3.30;;;6.80;99.90;;;;;;4933471;28;20786;-85
2023/04/03 12:43:19;;;;;;;21.93;12.17;;;6.80;99.90;;;;;;4935532;29;20079;-85
2023/04/03 12:45:52;;;;;;;21.67;14.60;;;6.70;99.90;;;;;;4920249;29;20167;-85
2023/04/03 12:48:24;;;;;;;8.90;4.40;;;6.70;99.90;;;;;;4934949;28;20151;-85
2023/04/03 12:50:50;;;;;;;5.00;2.87;;;6.70;99.90;;;;;;4936356;29;20041;-85
2023/04/03 12:53:26;;;;;;;5.63;3.40;;;6.70;99.90;;;;;;4935864;29;20042;-86
2023/04/03 12:55:56;;;;;;;12.23;7.20;;;6.70;99.90;;;;;;4936516;28;20106;-85
2023/04/03 12:58:33;;;;;;;45.97;24.13;;;6.80;99.90;;;;;;4934455;29;20038;-85
2023/04/03 13:01:09;;;;;;;13.90;7.37;;;7.00;99.90;;;;;;4935661;29;20046;-85
2023/04/03 13:03:41;;;;;;;6.60;3.60;;;7.00;99.90;;;;;;4935315;29;21453;-85
2023/04/03 13:06:07;;;;;;;3.97;2.43;;;7.00;99.90;;;;;;4935879;29;20106;-85
2023/04/03 13:08:32;;;;;;;4.87;2.90;;;7.10;99.90;;;;;;4935521;29;20949;-85